Coral Ruby — 3ERR6 — position and weather

sailwx.info

Track history (hours):
 
Tides and Currents Weather Stations Pressure Air Temp Water Temp Dewpoint Dewpoint Depression Visibility Wind Speed Wind Dir Waves Ship Positions

Coral Ruby

Last reported at 2014-Nov-28 10:26 UTC. Time now 2014-Nov-28 14:36 UTC.
Position S 32°23' E 152°43'.

Length 225 m; draft 11.9 m.

Type: Ship. MMSI: 370150000.

Date/timePositionNaut miles runAvg speedWind from/ knotsBaromVisibWave heightAir tempDewpointWater temp
2014-Nov-28 10:26S 32°23' E 152°43'1111.9
2014-Nov-28 09:31S 32°33' E 152°37'1111.9
2014-Nov-28 08:33S 32°42' E 152°28'1211.7
2014-Nov-28 07:33S 32°50' E 152°19'1211.8
2014-Nov-28 06:33S 32°56' E 152°07'1212.3
2014-Nov-28 05:33S 32°60' E 151°53'7 7.2
2014-Nov-28 04:33S 32°55' E 151°46'2 1.4
2014-Nov-28 03:22S 32°53' E 151°46'0 0.0
2014-Nov-28 02:22S 32°53' E 151°46'0 0.0
2014-Nov-28 00:28S 32°53' E 151°46'0 0.0
2014-Nov-27 22:04S 32°53' E 151°46'0 0.0
2014-Nov-27 21:31S 32°53' E 151°46'0 0.0
2014-Nov-27 20:31S 32°53' E 151°46'0 0.0
2014-Nov-27 19:28S 32°53' E 151°46'0 0.0
2014-Nov-27 18:31S 32°53' E 151°46'0 0.0
2014-Nov-27 17:31S 32°53' E 151°46'0 0.0
2014-Nov-27 16:31S 32°53' E 151°46'0 0.0
2014-Nov-27 15:31S 32°53' E 151°46'0 0.0
2014-Nov-27 14:31S 32°53' E 151°46'0 0.0
2014-Nov-27 13:28S 32°53' E 151°46'0 0.0
2014-Nov-27 12:31S 32°53' E 151°46'0 0.0
2014-Nov-27 11:31S 32°53' E 151°46'0 0.0
2014-Nov-27 10:31S 32°53' E 151°46'0 0.0
2014-Nov-27 09:28S 32°53' E 151°46'0 0.0
2014-Nov-27 08:31S 32°53' E 151°46'0 0.4
2014-Nov-27 07:33S 32°53' E 151°46'5 4.9
2014-Nov-27 06:33S 32°57' E 151°50'7 6.5
2014-Nov-27 05:29S 33°04' E 151°49'7 0.4
2014-Nov-26 11:04S 33°09' E 151°44'0 0.0
2014-Nov-26 10:22S 33°09' E 151°44'0 0.0
2014-Nov-24 18:16S 33°09' E 151°44'0 0.0
2014-Nov-24 15:28S 33°09' E 151°44'0 0.0
2014-Nov-24 14:22S 33°09' E 151°44'0 0.1
2014-Nov-24 13:34S 33°09' E 151°44'0 0.0
2014-Nov-24 11:16S 33°09' E 151°44'0 0.1
2014-Nov-24 10:33S 33°09' E 151°44'4 3.9
2014-Nov-24 09:33S 33°09' E 151°49'7 6.8
2014-Nov-24 08:33S 33°09' E 151°57'1211.8
2014-Nov-24 07:33S 33°07' E 152°11'1212.2
2014-Nov-24 06:33S 33°07' E 152°26'6 5.5
2014-Nov-24 05:33S 33°06' E 152°32'2 1.6
2014-Nov-24 04:33S 33°06' E 152°34'2 1.6
2014-Nov-24 03:33S 33°05' E 152°36'2 1.6
2014-Nov-24 02:33S 33°05' E 152°38'1 1.2
2014-Nov-24 01:30S 33°05' E 152°39'1 0.8
2014-Nov-24 00:24S 33°05' E 152°40'2 0.7
2014-Nov-23 21:33S 33°05' E 152°43'1 0.5
2014-Nov-23 20:30S 33°05' E 152°43'1 0.8
2014-Nov-23 19:33S 33°05' E 152°44'1 0.6
2014-Nov-23 18:33S 33°05' E 152°45'1 0.5
2014-Nov-23 17:33S 33°06' E 152°46'0 0.5
2014-Nov-23 16:33S 33°06' E 152°46'1 0.2
2014-Nov-23 14:09S 33°06' E 152°47'0 0.2
2014-Nov-23 13:33S 33°06' E 152°47'1 0.3
2014-Nov-23 09:12S 33°05' E 152°45'1 0.8
2014-Nov-23 08:33S 33°05' E 152°46'1 1.3
2014-Nov-23 07:30S 33°04' E 152°47'1 1.2
2014-Nov-23 06:33S 33°03' E 152°48'1 1.0
2014-Nov-23 05:33S 33°03' E 152°49'8 7.6
2014-Nov-23 04:33S 33°06' E 152°57'1212.2
2014-Nov-23 03:33S 33°12' E 153°10'1211.6
2014-Nov-23 02:33S 33°17' E 153°22'1110.9
2014-Nov-23 01:33S 33°23' E 153°33'1110.7
2014-Nov-23 00:32S 33°28' E 153°45'26 5.8
2014-Nov-22 20:06S 33°37' E 154°14'3 5.1
2014-Nov-22 19:33S 33°35' E 154°11'5 4.9
2014-Nov-22 18:32S 33°31' E 154°07'5 4.8
2014-Nov-22 17:33S 33°28' E 154°03'5 4.7
2014-Nov-22 16:31S 33°25' E 153°59'5 4.9
2014-Nov-22 15:33S 33°21' E 153°55'5 4.7
2014-Nov-22 14:32S 33°18' E 153°51'5 4.6
2014-Nov-22 13:25S 33°14' E 153°47'4 4.3
2014-Nov-22 12:33S 33°11' E 153°45'25 3.2
2014-Nov-22 04:34S 32°49' E 153°29'4 3.3
2014-Nov-22 03:18S 32°46' E 153°26'3 3.6
2014-Nov-22 02:29S 32°44' E 153°23'4 3.8
2014-Nov-22 01:33S 32°42' E 153°20'4 3.3
2014-Nov-22 00:26S 32°39' E 153°17'25 8.7
2014-Nov-21 21:33S 32°39' E 152°48'7 6.6
2014-Nov-21 20:32S 32°41' E 152°40'2 2.2
2014-Nov-21 19:32S 32°43' E 152°42'2 2.0
2014-Nov-21 18:32S 32°44' E 152°43'2 1.5
2014-Nov-21 17:32S 32°46' E 152°44'1 1.0
2014-Nov-21 16:32S 32°46' E 152°45'1 0.8
2014-Nov-21 15:32S 32°46' E 152°46'2 1.3
2014-Nov-21 14:14S 32°46' E 152°48'1 1.8
2014-Nov-21 13:32S 32°45' E 152°49'2 1.9
2014-Nov-21 12:32S 32°44' E 152°51'2 2.1
2014-Nov-21 11:32S 32°43' E 152°53'2 2.5
2014-Nov-21 10:32S 32°41' E 152°55'2 2.5
2014-Nov-21 09:32S 32°40' E 152°57'3 2.6
2014-Nov-21 08:32S 32°39' E 153°00'2 2.5
2014-Nov-21 07:32S 32°38' E 153°03'2 2.3
2014-Nov-21 06:32S 32°37' E 153°05'2 2.2
2014-Nov-21 05:32S 32°36' E 153°08'2 1.7
2014-Nov-21 04:33S 32°35' E 153°10'1111.4
2014-Nov-21 03:33S 32°46' E 153°14'1111.3
2014-Nov-21 02:33S 32°57' E 153°17'1211.6
2014-Nov-21 01:33S 33°09' E 153°19'1211.8
2014-Nov-21 00:33S 33°20' E 153°20'9 8.6
2014-Nov-20 23:30S 33°29' E 153°22'4 1.8
2014-Nov-20 21:30S 33°27' E 153°25'5 2.2
2014-Nov-20 19:26S 33°23' E 153°28'2 2.4
2014-Nov-20 18:33S 33°21' E 153°29'2 2.3
2014-Nov-20 17:33S 33°19' E 153°31'9 2.0
2014-Nov-20 13:12S 33°13' E 153°38'5 2.8
2014-Nov-20 11:25S 33°08' E 153°40'15 4.8
2014-Nov-20 08:12S 32°53' E 153°40'3 4.9
2014-Nov-20 07:32S 32°50' E 153°39'4 4.6
2014-Nov-20 06:34S 32°45' E 153°38'4 4.4
2014-Nov-20 05:33S 32°41' E 153°37'4 4.0
2014-Nov-20 04:33S 32°37' E 153°37'5 4.2
2014-Nov-20 03:23S 32°32' E 153°36'27115.2
2014-Nov-19 09:33S 28°01' E 153°52'1414.2
2014-Nov-19 08:33S 27°47' E 153°52'1413.9
2014-Nov-19 07:33S 27°33' E 153°52'  
Track history (hours):
 
Tides and Currents Weather Stations Pressure Air Temp Water Temp Dewpoint Dewpoint Depression Visibility Wind Speed Wind Dir Waves Ship Positions

Coral Ruby

Last reported at 2014-Nov-28 10:26 UTC. Time now 2014-Nov-28 14:36 UTC.
Position S 32°23' E 152°43'.

Length 225 m; draft 11.9 m.

Type: Ship. MMSI: 370150000.

Date/timePositionNaut miles runAvg speedWind from/ knotsBaromVisibWave heightAir tempDewpointWater temp
2014-Nov-28 10:26S 32°23' E 152°43'1111.9
2014-Nov-28 09:31S 32°33' E 152°37'1111.9
2014-Nov-28 08:33S 32°42' E 152°28'1211.7
2014-Nov-28 07:33S 32°50' E 152°19'1211.8
2014-Nov-28 06:33S 32°56' E 152°07'1212.3
2014-Nov-28 05:33S 32°60' E 151°53'7 7.2
2014-Nov-28 04:33S 32°55' E 151°46'2 1.4
2014-Nov-28 03:22S 32°53' E 151°46'0 0.0
2014-Nov-28 02:22S 32°53' E 151°46'0 0.0
2014-Nov-28 00:28S 32°53' E 151°46'0 0.0
2014-Nov-27 22:04S 32°53' E 151°46'0 0.0
2014-Nov-27 21:31S 32°53' E 151°46'0 0.0
2014-Nov-27 20:31S 32°53' E 151°46'0 0.0
2014-Nov-27 19:28S 32°53' E 151°46'0 0.0
2014-Nov-27 18:31S 32°53' E 151°46'0 0.0
2014-Nov-27 17:31S 32°53' E 151°46'0 0.0
2014-Nov-27 16:31S 32°53' E 151°46'0 0.0
2014-Nov-27 15:31S 32°53' E 151°46'0 0.0
2014-Nov-27 14:31S 32°53' E 151°46'0 0.0
2014-Nov-27 13:28S 32°53' E 151°46'0 0.0
2014-Nov-27 12:31S 32°53' E 151°46'0 0.0
2014-Nov-27 11:31S 32°53' E 151°46'0 0.0
2014-Nov-27 10:31S 32°53' E 151°46'0 0.0
2014-Nov-27 09:28S 32°53' E 151°46'0 0.0
2014-Nov-27 08:31S 32°53' E 151°46'0 0.4
2014-Nov-27 07:33S 32°53' E 151°46'5 4.9
2014-Nov-27 06:33S 32°57' E 151°50'7 6.5
2014-Nov-27 05:29S 33°04' E 151°49'7 0.4
2014-Nov-26 11:04S 33°09' E 151°44'0 0.0
2014-Nov-26 10:22S 33°09' E 151°44'0 0.0
2014-Nov-24 18:16S 33°09' E 151°44'0 0.0
2014-Nov-24 15:28S 33°09' E 151°44'0 0.0
2014-Nov-24 14:22S 33°09' E 151°44'0 0.1
2014-Nov-24 13:34S 33°09' E 151°44'0 0.0
2014-Nov-24 11:16S 33°09' E 151°44'0 0.1
2014-Nov-24 10:33S 33°09' E 151°44'4 3.9
2014-Nov-24 09:33S 33°09' E 151°49'7 6.8
2014-Nov-24 08:33S 33°09' E 151°57'1211.8
2014-Nov-24 07:33S 33°07' E 152°11'1212.2
2014-Nov-24 06:33S 33°07' E 152°26'6 5.5
2014-Nov-24 05:33S 33°06' E 152°32'2 1.6
2014-Nov-24 04:33S 33°06' E 152°34'2 1.6
2014-Nov-24 03:33S 33°05' E 152°36'2 1.6
2014-Nov-24 02:33S 33°05' E 152°38'1 1.2
2014-Nov-24 01:30S 33°05' E 152°39'1 0.8
2014-Nov-24 00:24S 33°05' E 152°40'2 0.7
2014-Nov-23 21:33S 33°05' E 152°43'1 0.5
2014-Nov-23 20:30S 33°05' E 152°43'1 0.8
2014-Nov-23 19:33S 33°05' E 152°44'1 0.6
2014-Nov-23 18:33S 33°05' E 152°45'1 0.5
2014-Nov-23 17:33S 33°06' E 152°46'0 0.5
2014-Nov-23 16:33S 33°06' E 152°46'1 0.2
2014-Nov-23 14:09S 33°06' E 152°47'0 0.2
2014-Nov-23 13:33S 33°06' E 152°47'1 0.3
2014-Nov-23 09:12S 33°05' E 152°45'1 0.8
2014-Nov-23 08:33S 33°05' E 152°46'1 1.3
2014-Nov-23 07:30S 33°04' E 152°47'1 1.2
2014-Nov-23 06:33S 33°03' E 152°48'1 1.0
2014-Nov-23 05:33S 33°03' E 152°49'8 7.6
2014-Nov-23 04:33S 33°06' E 152°57'1212.2
2014-Nov-23 03:33S 33°12' E 153°10'1211.6
2014-Nov-23 02:33S 33°17' E 153°22'1110.9
2014-Nov-23 01:33S 33°23' E 153°33'1110.7
2014-Nov-23 00:32S 33°28' E 153°45'26 5.8
2014-Nov-22 20:06S 33°37' E 154°14'3 5.1
2014-Nov-22 19:33S 33°35' E 154°11'5 4.9
2014-Nov-22 18:32S 33°31' E 154°07'5 4.8
2014-Nov-22 17:33S 33°28' E 154°03'5 4.7
2014-Nov-22 16:31S 33°25' E 153°59'5 4.9
2014-Nov-22 15:33S 33°21' E 153°55'5 4.7
2014-Nov-22 14:32S 33°18' E 153°51'5 4.6
2014-Nov-22 13:25S 33°14' E 153°47'4 4.3
2014-Nov-22 12:33S 33°11' E 153°45'25 3.2
2014-Nov-22 04:34S 32°49' E 153°29'4 3.3
2014-Nov-22 03:18S 32°46' E 153°26'3 3.6
2014-Nov-22 02:29S 32°44' E 153°23'4 3.8
2014-Nov-22 01:33S 32°42' E 153°20'4 3.3
2014-Nov-22 00:26S 32°39' E 153°17'25 8.7
2014-Nov-21 21:33S 32°39' E 152°48'7 6.6
2014-Nov-21 20:32S 32°41' E 152°40'2 2.2
2014-Nov-21 19:32S 32°43' E 152°42'2 2.0
2014-Nov-21 18:32S 32°44' E 152°43'2 1.5
2014-Nov-21 17:32S 32°46' E 152°44'1 1.0
2014-Nov-21 16:32S 32°46' E 152°45'1 0.8
2014-Nov-21 15:32S 32°46' E 152°46'2 1.3
2014-Nov-21 14:14S 32°46' E 152°48'1 1.8
2014-Nov-21 13:32S 32°45' E 152°49'2 1.9
2014-Nov-21 12:32S 32°44' E 152°51'2 2.1
2014-Nov-21 11:32S 32°43' E 152°53'2 2.5
2014-Nov-21 10:32S 32°41' E 152°55'2 2.5
2014-Nov-21 09:32S 32°40' E 152°57'3 2.6
2014-Nov-21 08:32S 32°39' E 153°00'2 2.5
2014-Nov-21 07:32S 32°38' E 153°03'2 2.3
2014-Nov-21 06:32S 32°37' E 153°05'2 2.2
2014-Nov-21 05:32S 32°36' E 153°08'2 1.7
2014-Nov-21 04:33S 32°35' E 153°10'1111.4
2014-Nov-21 03:33S 32°46' E 153°14'1111.3
2014-Nov-21 02:33S 32°57' E 153°17'1211.6
2014-Nov-21 01:33S 33°09' E 153°19'1211.8
2014-Nov-21 00:33S 33°20' E 153°20'9 8.6
2014-Nov-20 23:30S 33°29' E 153°22'4 1.8
2014-Nov-20 21:30S 33°27' E 153°25'5 2.2
2014-Nov-20 19:26S 33°23' E 153°28'2 2.4
2014-Nov-20 18:33S 33°21' E 153°29'2 2.3
2014-Nov-20 17:33S 33°19' E 153°31'9 2.0
2014-Nov-20 13:12S 33°13' E 153°38'5 2.8
2014-Nov-20 11:25S 33°08' E 153°40'15 4.8
2014-Nov-20 08:12S 32°53' E 153°40'3 4.9
2014-Nov-20 07:32S 32°50' E 153°39'4 4.6
2014-Nov-20 06:34S 32°45' E 153°38'4 4.4
2014-Nov-20 05:33S 32°41' E 153°37'4 4.0
2014-Nov-20 04:33S 32°37' E 153°37'5 4.2
2014-Nov-20 03:23S 32°32' E 153°36'27115.2
2014-Nov-19 09:33S 28°01' E 153°52'1414.2
2014-Nov-19 08:33S 27°47' E 153°52'1413.9
2014-Nov-19 07:33S 27°33' E 153°52'  

Dump ship's entire track history